Latest Coastal Weather Observations for Alva Beach

IDQ60701

Issued at 7:43 am EST Thursday 23 May 2024 (issued every 10 minutes, with the page automatically refreshed every 10 minutes)

About coastal observations | Map of coastal stations | Coastal observations for QLD | Marine services | Other Formats
Station Details ID: 033295 Name: ALVA BEACH Lat: -19.46 Lon: 147.48 Height: 7.5 m
Data from the previous 72 hours. | See also: Recent months at Alva Beach
Date/Time
EST
Wind Sea
Height
m
Swell Vis
km
Cloud Weather Temp
°C
Press
MSL
hPa
Rain since
9am
mm
Dir  Spd
kts
Gust
kts
Height
m
Period
s
Dir
23/07:30am S 5 7 - - - - - - - 18.9 1018.5 0.0
23/07:00am SSW 7 11 - - - - - - - 18.2 1018.1 0.0
23/06:30am S 5 8 - - - - - - - 19.5 1018.1 0.0
23/06:00am SE 7 12 - - - - - - - 20.9 1017.8 0.0
23/05:30am S 4 7 - - - - - - - 19.5 1017.5 0.0
23/05:00am SE 8 17 - - - - - - - 21.8 1017.3 0.0
23/04:30am SE 7 11 - - - - - - - 21.3 1017.3 0.0
23/04:00am SE 9 18 - - - - - - - 22.0 1017.2 0.0
23/03:30am SE 9 16 - - - - - - - 22.1 1017.3 0.0
23/03:00am SSE 6 12 - - - - - - - 21.6 1017.3 0.0
23/02:30am SE 10 17 - - - - - - - 22.4 1017.3 0.0
23/02:00am SE 9 16 - - - - - - - 22.4 1017.5 0.0
23/01:30am SE 9 14 - - - - - - - 22.4 1017.9 0.0
23/01:00am SE 9 15 - - - - - - - 22.5 1018.0 0.0
23/12:30am SE 8 15 - - - - - - - 22.4 1018.1 0.0
23/12:00am SE 8 13 - - - - - - - 22.5 1018.4 0.0
 
Date/Time
EST
Wind Sea
Height
m
Swell Vis
km
Cloud Weather Temp
°C
Press
MSL
hPa
Rain since
9am
mm
Dir  Spd
kts
Gust
kts
Height
m
Period
s
Dir
22/11:30pm SE 9 15 - - - - - - - 22.5 1018.5 0.0
22/11:00pm ESE 9 14 - - - - - - - 22.6 1018.6 0.0
22/10:30pm SE 8 14 - - - - - - - 22.9 1018.7 0.0
22/10:00pm ESE 13 19 - - - - - - - 23.3 1018.6 0.0
22/09:30pm E 13 21 - - - - - - - 23.2 1018.6 0.0
22/09:00pm E 13 20 - - - - - - - 23.3 1018.8 0.0
22/08:30pm E 13 19 - - - - - - - 23.3 1018.7 0.0
22/08:00pm E 13 18 - - - - - - - 23.3 1018.6 0.0
22/07:30pm E 14 21 - - - - - - - 23.2 1018.2 0.0
22/07:00pm E 13 19 - - - - - - - 23.2 1018.0 0.0
22/06:30pm E 14 20 - - - - - - - 23.3 1017.6 0.0
22/06:00pm E 14 21 - - - - - - - 23.4 1017.1 0.0
22/05:30pm E 14 21 - - - - - - - 23.6 1016.7 0.0
22/05:00pm E 14 20 - - - - - - - 24.0 1016.4 0.0
22/04:30pm E 15 21 - - - - - - - 24.3 1016.2 0.0
22/04:00pm E 14 19 - - - - - - - 24.6 1015.9 0.0
22/03:30pm E 12 17 - - - - - - - 24.9 1015.8 0.0
22/03:00pm E 12 18 - - - - - - - 25.0 1015.8 0.0
22/02:30pm E 13 19 - - - - - - - 25.0 1015.7 0.0
22/02:00pm E 12 17 - - - - - - - 25.9 1016.3 0.0
22/01:30pm E 11 19 - - - - - - - 26.0 1016.8 0.0
22/01:00pm ESE 10 15 - - - - - - - 26.1 1017.1 0.0
22/12:30pm ESE 9 13 - - - - - - - 26.3 1017.5 0.0
22/12:00pm ESE 10 16 - - - - - - - 26.2 1017.9 0.0
22/11:30am ESE 8 14 - - - - - - - 26.1 1018.2 0.0
22/11:00am SE 7 13 - - - - - - - 25.7 1018.5 0.0
22/10:30am SE 8 12 - - - - - - - 25.2 1018.9 0.0
22/10:00am SE 6 11 - - - - - - - 25.3 1019.1 0.0
22/09:30am SE 6 11 - - - - - - - 24.5 1019.2 0.0
22/09:00am SSE 6 9 - - - - - - - 23.0 1019.1 0.0
22/08:30am S 6 10 - - - - - - - 21.4 1018.9 0.0
22/08:00am SSW 6 11 - - - - - - - 20.4 1018.8 0.0
22/07:30am SSW 5 9 - - - - - - - 18.6 1018.5 0.0
22/07:00am SSW 4 6 - - - - - - - 18.0 1018.3 0.0
22/06:30am SSW 4 7 - - - - - - - 18.1 1017.9 0.0
22/06:00am SSW 6 8 - - - - - - - 18.1 1017.8 0.0
22/05:30am SSW 6 9 - - - - - - - 18.0 1017.5 0.0
22/05:00am SSW 6 8 - - - - - - - 17.5 1017.4 0.0
22/04:30am SW 5 7 - - - - - - - 17.0 1017.1 0.0
22/04:00am SW 3 5 - - - - - - - 17.3 1017.0 0.0
22/03:30am SSE 3 5 - - - - - - - 17.8 1016.8 0.0
22/03:00am SSW 4 6 - - - - - - - 18.3 1016.9 0.0
22/02:30am S 4 6 - - - - - - - 19.5 1017.1 0.0
22/02:00am SE 8 14 - - - - - - - 21.6 1017.2 0.0
22/01:30am ESE 10 14 - - - - - - - 22.0 1017.5 0.0
22/01:00am ESE 9 14 - - - - - - - 22.1 1017.7 0.0
22/12:30am ESE 9 15 - - - - - - - 22.2 1017.9 0.0
22/12:00am ESE 9 13 - - - - - - - 22.2 1018.2 0.0
 
Date/Time
EST
Wind Sea
Height
m
Swell Vis
km
Cloud Weather Temp
°C
Press
MSL
hPa
Rain since
9am
mm
Dir  Spd
kts
Gust
kts
Height
m
Period
s
Dir
21/11:30pm ESE 10 15 - - - - - - - 22.5 1018.5 0.0
21/11:00pm SE 9 15 - - - - - - - 22.4 1018.6 0.0
21/10:30pm ESE 10 15 - - - - - - - 22.6 1018.6 0.0
21/10:00pm ESE 10 15 - - - - - - - 22.9 1018.5 0.0
21/09:30pm ESE 9 14 - - - - - - - 23.1 1018.5 0.0
21/09:00pm ESE 10 15 - - - - - - - 23.2 1018.7 0.0
21/08:30pm ESE 10 16 - - - - - - - 23.5 1018.7 0.0
21/08:00pm ESE 11 18 - - - - - - - 23.5 1018.3 0.0
21/07:30pm ESE 10 16 - - - - - - - 23.5 1017.9 0.0
21/07:00pm ESE 10 14 - - - - - - - 23.5 1017.6 0.0
21/06:30pm ESE 9 14 - - - - - - - 23.5 1017.5 0.0
21/06:00pm ESE 7 10 - - - - - - - 23.3 1017.3 0.0
21/05:30pm E 7 12 - - - - - - - 23.3 1017.2 0.0
21/05:00pm E 6 8 - - - - - - - 23.5 1016.9 0.0
21/04:30pm E 5 9 - - - - - - - 23.9 1016.8 0.0
21/04:00pm E 6 10 - - - - - - - 24.4 1016.6 0.0
21/03:30pm E 6 9 - - - - - - - 24.7 1016.5 0.0
21/03:00pm E 6 9 - - - - - - - 24.6 1016.6 0.0
21/02:30pm E 7 10 - - - - - - - 24.7 1016.7 0.0
21/02:00pm E 7 11 - - - - - - - 25.0 1016.8 0.0
21/01:30pm E 8 11 - - - - - - - 24.9 1017.1 0.0
21/01:00pm ESE 9 12 - - - - - - - 25.0 1017.3 0.0
21/12:30pm ESE 9 13 - - - - - - - 25.1 1017.6 0.0
21/12:00pm ESE 9 12 - - - - - - - 24.6 1018.0 0.0
21/11:30am ESE 6 11 - - - - - - - 24.2 1018.3 0.0
21/11:00am SE 8 12 - - - - - - - 23.9 1018.7 0.0
21/10:30am SE 6 9 - - - - - - - 23.9 1019.0 0.0
21/10:00am ESE 7 12 - - - - - - - 23.4 1019.1 0.0
21/09:30am SE 5 8 - - - - - - - 23.1 1019.1 0.0
21/09:00am S 6 10 - - - - - - - 20.8 1019.0 0.0
21/08:30am S 5 9 - - - - - - - 19.4 1019.0 0.0
21/08:00am SSW 5 7 - - - - - - - 17.3 1018.7 0.0
21/07:30am SW 5 7 - - - - - - - 15.2 1018.7 0.0
21/07:00am SW 5 7 - - - - - - - 14.5 1018.4 0.0
21/06:30am SW 4 6 - - - - - - - 14.1 1018.1 0.0
21/06:00am SW 5 6 - - - - - - - 14.4 1017.9 0.0
21/05:30am SSW 5 7 - - - - - - - 14.6 1017.6 0.0
21/05:00am SW 5 7 - - - - - - - 14.8 1017.4 0.0
21/04:30am SSW 6 8 - - - - - - - 15.0 1017.1 0.0
21/04:00am SSW 6 8 - - - - - - - 15.7 1017.1 0.0
21/03:30am SSW 5 7 - - - - - - - 15.7 1017.2 0.0
21/03:00am SSW 6 8 - - - - - - - 16.0 1017.3 0.0
21/02:30am SSW 5 8 - - - - - - - 16.1 1017.2 0.0
21/02:00am SSW 5 6 - - - - - - - 16.9 1017.7 0.0
21/01:30am SSW 5 7 - - - - - - - 17.4 1017.8 0.0
21/01:00am SSW 5 6 - - - - - - - 17.7 1018.1 0.0
21/12:30am S 5 6 - - - - - - - 18.6 1017.9 0.0
21/12:00am S 4 6 - - - - - - - 19.3 1018.2 0.0
 
Date/Time
EST
Wind Sea
Height
m
Swell Vis
km
Cloud Weather Temp
°C
Press
MSL
hPa
Rain since
9am
mm
Dir  Spd
kts
Gust
kts
Height
m
Period
s
Dir
20/11:30pm S 5 7 - - - - - - - 20.5 1018.4 0.0
20/11:00pm SE 8 15 - - - - - - - 22.2 1018.5 0.0
20/10:30pm ESE 9 13 - - - - - - - 22.6 1018.4 0.0
20/10:00pm ESE 9 12 - - - - - - - 22.8 1018.4 0.0
20/09:30pm ESE 9 13 - - - - - - - 23.0 1018.3 0.0
20/09:00pm ESE 8 13 - - - - - - - 23.0 1018.5 0.0
20/08:30pm ESE 8 13 - - - - - - - 23.1 1018.3 0.0
20/08:00pm ESE 9 13 - - - - - - - 23.2 1018.0 0.0
20/07:30pm E 9 13 - - - - - - - 23.1 1017.5 0.0
20/07:00pm E 9 13 - - - - - - - 23.0 1017.2 0.0
20/06:30pm E 8 13 - - - - - - - 23.1 1016.8 0.0
20/06:00pm E 9 14 - - - - - - - 23.0 1016.6 0.0
20/05:30pm E 11 16 - - - - - - - 23.1 1016.3 0.0
20/05:00pm E 9 15 - - - - - - - 23.3 1016.0 0.0
20/04:30pm E 7 11 - - - - - - - 24.0 1015.7 0.0
20/04:00pm E 7 9 - - - - - - - 23.7 1015.9 0.0
20/03:30pm ESE 5 8 - - - - - - - 23.8 1015.9 0.0
20/03:00pm ESE 6 10 - - - - - - - 24.9 1015.8 0.0
20/02:30pm ESE 7 11 - - - - - - - 24.4 1015.8 0.0
20/02:00pm ESE 7 11 - - - - - - - - 1015.8 0.0
20/01:32pm SE 7 14 - - - - - - - -5.3 1016.0 0.0
20/01:31pm SE 7 14 - - - - - - - 4.0 1016.0 0.0
20/01:30pm SE 7 12 - - - - - - - 16.6 1016.0 0.0
20/01:00pm SE 7 13 - - - - - - - 23.6 1016.4 0.0
20/12:30pm SE 7 11 - - - - - - - 23.9 1016.7 0.0
20/12:00pm SSE 7 13 - - - - - - - 23.3 1016.9 0.0
20/11:30am SE 8 13 - - - - - - - 23.4 1017.5 0.0
20/11:00am SSE 7 12 - - - - - - - 23.7 1017.7 0.0
20/10:30am S 7 13 - - - - - - - 21.7 1018.1 0.0
20/10:00am SSW 7 11 - - - - - - - 19.3 1018.6 0.0
20/09:30am SSW 7 11 - - - - - - - 18.1 1018.7 0.0
20/09:00am SSW 7 10 - - - - - - - 17.0 1018.4 0.0
20/08:30am SSW 7 10 - - - - - - - 16.6 1018.4 0.0
20/08:00am SW 7 9 - - - - - - - 14.6 1018.2 0.0

Other formats

Comma delimited format used in spreadsheet applications
http://www.bom.gov.au/fwo/IDQ60701/IDQ60701.95296.axf

JavaScript Object Notation format (JSON) in row-major order
http://www.bom.gov.au/fwo/IDQ60701/IDQ60701.95296.json

Data quality

Most of these data are generated automatically and are frequently updated. Quality checks on data are not normally performed. It is possible for incorrect values to appear. Refer to information at About Latest Weather Observations and please check the disclaimer before using these data.